Airfield :
LOGIN :

Register | Disclaimer

   EN    FR    IT 

 










Legend :    VFR   Marginal VFR   IFR   Intensive IFR   Very Intensive IFR
Visi :
Ceiling :
>= 8 km
>= 3000ft
5 to 8 km
1000 to 3000 ft
1500m to 5 km
500 to 1000 ft
800 to 1500m
200 to 500 ft
< 800m
< 200 ft
Symbols :   Thunderstorms  Fog  Heavy snow  Heavy precipitations  Wind > 20 kt
SIGMETs :     Misc.  Thunderstorms  Icing  Turbulence  Mountain Waves  Volcanic Ashes






- Airport Elevation : 219 ft
- IATA code : DNR


LFRD - Dinard

CURRENT METAR :
  • 250230Z AUTO 36002KT CAVOK 14/13 Q1015 TEMPO 4000 BR

EXPIRED METARs :
  • 250200Z AUTO VRB02KT CAVOK 14/13 Q1015 TEMPO 4000 BR
  • 250130Z AUTO 06003KT CAVOK 15/13 Q1016 TEMPO 4000 BR
  • 250100Z AUTO 05003KT CAVOK 15/13 Q1016 TEMPO 4000 BR
  • 250030Z AUTO 05003KT CAVOK 16/13 Q1016 TEMPO 4000 BR
  • 250000Z AUTO 08005KT CAVOK 17/14 Q1016 NOSIG
  • 242330Z AUTO 08006KT CAVOK 17/14 Q1017 NOSIG
  • 242300Z AUTO 08006KT CAVOK 17/14 Q1017 NOSIG
  • 242230Z AUTO 07007KT CAVOK 17/14 Q1017 NOSIG
  • 242200Z AUTO 06006KT CAVOK 18/14 Q1017 NOSIG

TAF TAF LFRD
Valid from the 25 at 00:00 until the 26 at 00:00 UTC


242300Z 2500/2524 VRB04KT CAVOK
PROB40
TEMPO 2502/2506 4000 BR
BECMG 2510/2512 01010KT
BECMG 2519/2522 VRB05KT
ATIS : +33 2 99 16 81 50



MET'MAP, your aeronautical weather chart ! - Copyright ORBIFLY December 2007 - Disclaimer

ORBIFLY MET'MAP TEAM :

Programming & Development : Alexandra Zaïnal
Original concept : Baudouin d'Aumeries
Technical & hardware support : Manuel Goepfert
Assistance : Marc-Olivier Méhu




SOURCES & CREDITS :

   NOAA